Time;durP1;ratioP1;P1;durP2;ratioP2;P2;SDS_P1;SDS_P2;PMS_P1;PMS_P2;Temp;Humidity;BMP_temperature;BMP_pressure;BME280_temperature;BME280_humidity;BME280_pressure;Samples;Min_cycle;Max_cycle;Signal;HPM_P1;HPM_P2
2023/10/16 00:09:14;;;;;;;0.20;0.10;;;6.30;94.70;;;;;;25337188;23;20037;-51
2023/10/16 00:19:16;;;;;;;0.10;0.00;;;6.10;96.30;;;;;;25377355;23;20359;-59
2023/10/16 00:29:35;;;;;;;1.38;0.20;;;5.80;97.30;;;;;;25336815;23;20468;-58
2023/10/16 00:39:37;;;;;;;0.50;0.10;;;5.30;97.70;;;;;;25361695;23;20024;-50
2023/10/16 00:49:39;;;;;;;0.25;0.03;;;4.90;98.50;;;;;;25349936;23;20357;-48
2023/10/16 00:59:42;;;;;;;0.63;0.13;;;4.90;97.90;;;;;;25349322;23;20050;-50
2023/10/16 01:09:46;;;;;;;0.30;0.10;;;5.10;97.80;;;;;;25323322;23;20008;-50
2023/10/16 01:19:48;;;;;;;0.20;0.10;;;5.30;98.90;;;;;;25323295;23;20005;-48
2023/10/16 01:29:52;;;;;;;0.30;0.10;;;5.40;98.30;;;;;;25349221;23;20013;-53
2023/10/16 01:39:55;;;;;;;0.30;0.10;;;5.20;98.90;;;;;;25348615;23;20056;-48
2023/10/16 01:49:58;;;;;;;0.32;0.10;;;4.90;99.40;;;;;;25343542;23;20010;-48
2023/10/16 02:00:05;;;;;;;2.00;0.20;;;4.80;99.60;;;;;;25341700;23;20093;-49
2023/10/16 02:10:13;;;;;;;0.28;0.10;;;4.70;99.80;;;;;;25383374;23;20006;-49
2023/10/16 02:20:17;;;;;;;0.57;0.10;;;4.50;99.90;;;;;;25341216;23;20002;-49
2023/10/16 02:40:32;;;;;;;0.30;0.10;;;4.60;99.90;;;;;;25354594;23;20010;-48
2023/10/16 02:50:35;;;;;;;0.30;0.10;;;4.50;99.90;;;;;;25351713;23;20006;-50
2023/10/16 03:00:44;;;;;;;0.45;0.10;;;4.80;99.60;;;;;;25216159;23;20097;-50
2023/10/16 03:10:46;;;;;;;0.40;0.08;;;5.00;99.80;;;;;;25258145;23;20069;-50
2023/10/16 03:21:00;;;;;;;0.30;0.10;;;5.00;99.90;;;;;;25217579;23;20010;-49
2023/10/16 03:31:03;;;;;;;0.40;0.10;;;5.20;99.90;;;;;;25256823;23;20010;-51
2023/10/16 03:41:12;;;;;;;0.98;0.10;;;5.30;99.50;;;;;;25215350;23;20497;-49
2023/10/16 03:51:16;;;;;;;0.77;0.10;;;5.20;99.90;;;;;;25256025;23;20521;-49
2023/10/16 04:01:23;;;;;;;0.25;0.10;;;5.10;99.90;;;;;;25332221;23;20327;-50
2023/10/16 04:11:25;;;;;;;0.22;0.00;;;5.10;99.90;;;;;;25376067;23;20005;-52
2023/10/16 04:32:19;;;;;;;0.40;0.10;;;5.10;99.90;;;;;;24965005;23;20487;-49
2023/10/16 05:03:23;;;;;;;0.28;0.10;;;5.20;99.90;;;;;;24942712;23;20019;-49
2023/10/16 06:15:21;;;;;;;0.57;0.20;;;4.50;99.90;;;;;;25380776;23;20053;-58
2023/10/16 06:25:28;;;;;;;0.52;0.13;;;4.90;99.90;;;;;;25380462;23;20076;-50
2023/10/16 06:35:30;;;;;;;0.65;0.20;;;5.20;99.90;;;;;;25379709;23;20006;-49
2023/10/16 06:45:42;;;;;;;0.60;0.20;;;5.60;99.90;;;;;;25339967;23;20002;-50
2023/10/16 06:55:45;;;;;;;0.45;0.10;;;6.10;99.90;;;;;;25356005;23;20330;-54
2023/10/16 07:05:48;;;;;;;0.28;0.10;;;6.90;99.90;;;;;;25338557;23;20038;-50
2023/10/16 07:15:49;;;;;;;0.40;0.13;;;7.60;99.90;;;;;;25338204;23;20473;-51
2023/10/16 07:25:54;;;;;;;1.75;0.20;;;8.10;99.90;;;;;;25338111;23;20005;-53
2023/10/16 07:35:58;;;;;;;0.75;0.13;;;8.70;99.90;;;;;;25311401;23;20002;-59
2023/10/16 07:56:25;;;;;;;0.22;0.10;;;8.90;99.90;;;;;;25359320;23;20069;-58
2023/10/16 08:06:48;;;;;;;0.32;0.10;;;8.80;99.90;;;;;;25377356;23;20010;-51
2023/10/16 08:16:58;;;;;;;0.30;0.13;;;8.90;99.90;;;;;;25336298;23;20014;-59
2023/10/16 08:37:22;;;;;;;0.35;0.10;;;9.20;99.90;;;;;;25375689;23;20249;-59
2023/10/16 08:47:25;;;;;;;0.80;0.10;;;9.40;99.90;;;;;;25337263;23;20317;-53
2023/10/16 08:57:27;;;;;;;0.30;0.20;;;9.80;99.90;;;;;;25338426;23;20090;-61
2023/10/16 09:07:31;;;;;;;0.20;0.13;;;10.10;99.90;;;;;;25343395;23;20331;-54
2023/10/16 09:17:35;;;;;;;0.57;0.10;;;10.00;99.90;;;;;;25316630;23;20053;-52
2023/10/16 09:27:37;;;;;;;0.60;0.30;;;9.90;99.90;;;;;;25342247;23;20034;-58
2023/10/16 09:37:40;;;;;;;0.70;0.30;;;10.00;99.90;;;;;;25342011;23;20010;-59
2023/10/16 09:47:48;;;;;;;1.85;0.20;;;10.10;99.90;;;;;;25340070;23;20014;-54
2023/10/16 09:57:54;;;;;;;1.25;0.40;;;10.10;99.90;;;;;;25356535;23;20084;-58
2023/10/16 10:07:59;;;;;;;0.88;0.40;;;10.40;99.90;;;;;;25380790;23;20088;-52
2023/10/16 10:28:28;;;;;;;0.70;0.30;;;11.20;99.90;;;;;;25379964;23;20442;-60
2023/10/16 10:38:31;;;;;;;0.55;0.20;;;12.20;99.90;;;;;;25379707;23;20006;-60
2023/10/16 10:48:37;;;;;;;0.80;0.20;;;13.30;98.60;;;;;;25338911;23;20013;-51
2023/10/16 10:58:39;;;;;;;0.40;0.13;;;14.30;95.80;;;;;;25343499;23;20382;-61
2023/10/16 11:08:42;;;;;;;0.30;0.10;;;15.00;92.60;;;;;;25338522;23;20014;-52
2023/10/16 11:19:10;;;;;;;1.70;0.20;;;14.10;92.10;;;;;;25338027;23;20069;-53
2023/10/16 11:29:12;;;;;;;1.15;0.20;;;13.70;91.40;;;;;;25079248;23;20073;-60
2023/10/16 11:39:19;;;;;;;1.77;0.30;;;13.70;91.20;;;;;;25084390;23;20482;-60
2023/10/16 11:49:37;;;;;;;0.50;0.30;;;13.00;91.30;;;;;;25106640;23;20011;-60
2023/10/16 11:59:40;;;;;;;2.30;0.20;;;13.30;91.10;;;;;;25114432;23;20038;-60
2023/10/16 12:09:47;;;;;;;0.82;0.30;;;12.20;93.10;;;;;;25215417;23;20382;-59
2023/10/16 12:19:52;;;;;;;1.42;0.28;;;11.80;93.70;;;;;;25255673;23;20069;-60
2023/10/16 12:29:53;;;;;;;1.02;0.40;;;12.10;94.90;;;;;;25214507;23;20017;-51
2023/10/16 12:39:55;;;;;;;1.05;0.30;;;13.00;93.30;;;;;;25214984;23;20399;-52
2023/10/16 12:49:58;;;;;;;2.90;0.40;;;13.20;94.40;;;;;;25216331;23;20010;-61
2023/10/16 12:59:59;;;;;;;0.73;0.35;;;13.60;91.90;;;;;;24940285;23;20019;-61
2023/10/16 13:10:08;;;;;;;1.05;0.40;;;13.50;93.50;;;;;;24964859;23;20019;-60
2023/10/16 13:20:19;;;;;;;2.28;0.30;;;13.50;91.20;;;;;;24969734;23;20247;-53
2023/10/16 13:30:22;;;;;;;1.15;0.40;;;12.30;92.60;;;;;;25174573;23;20081;-53
2023/10/16 13:40:28;;;;;;;6.20;0.50;;;12.00;93.60;;;;;;25214733;23;20006;-60
2023/10/16 13:50:30;;;;;;;0.47;0.20;;;11.90;93.00;;;;;;25260626;23;20014;-60
2023/10/16 14:00:35;;;;;;;2.63;0.47;;;11.70;92.60;;;;;;25327448;23;20018;-55
2023/10/16 14:10:39;;;;;;;3.42;0.70;;;11.20;93.00;;;;;;25341400;23;20002;-59
2023/10/16 14:20:45;;;;;;;1.40;0.40;;;10.80;94.30;;;;;;25342836;23;20021;-60
2023/10/16 14:30:47;;;;;;;6.32;0.65;;;10.70;94.00;;;;;;25380980;23;20041;-59
2023/10/16 14:40:49;;;;;;;1.23;0.50;;;10.00;94.00;;;;;;25339792;23;20006;-59
2023/10/16 14:50:51;;;;;;;1.77;0.80;;;9.20;95.10;;;;;;25340237;23;20010;-59
2023/10/16 15:00:59;;;;;;;1.88;0.80;;;8.70;96.30;;;;;;25339997;23;20014;-59
2023/10/16 15:11:00;;;;;;;1.73;0.60;;;8.30;97.90;;;;;;25380181;23;20075;-52
2023/10/16 15:21:02;;;;;;;3.15;0.80;;;8.20;97.50;;;;;;25313285;23;20018;-59
2023/10/16 15:31:04;;;;;;;4.47;0.70;;;7.90;98.60;;;;;;25338718;23;20006;-58
2023/10/16 15:41:09;;;;;;;2.50;0.70;;;7.40;99.40;;;;;;25337988;23;20006;-59
2023/10/16 15:51:11;;;;;;;6.05;0.80;;;6.90;98.90;;;;;;25337362;23;20038;-49
2023/10/16 16:01:13;;;;;;;2.65;0.73;;;6.30;99.90;;;;;;25337284;23;20025;-59
2023/10/16 16:11:19;;;;;;;3.83;0.80;;;5.80;99.90;;;;;;25336169;23;20002;-50
2023/10/16 16:21:21;;;;;;;2.67;0.95;;;5.30;99.90;;;;;;25377401;23;20018;-58
2023/10/16 16:31:24;;;;;;;3.80;0.80;;;4.80;99.90;;;;;;25337125;23;20418;-49
2023/10/16 16:41:26;;;;;;;3.35;0.88;;;4.30;99.90;;;;;;25336169;23;20002;-59
2023/10/16 16:51:29;;;;;;;2.72;0.90;;;4.00;99.90;;;;;;25337386;23;20006;-50
2023/10/16 17:01:32;;;;;;;2.08;0.90;;;3.80;99.90;;;;;;25336095;23;20025;-49
2023/10/16 17:11:34;;;;;;;2.78;0.93;;;3.50;99.90;;;;;;25335916;23;20442;-58
2023/10/16 17:21:35;;;;;;;2.65;0.80;;;3.30;99.90;;;;;;25342137;23;20010;-48
2023/10/16 17:31:40;;;;;;;3.33;0.80;;;3.20;99.90;;;;;;25343305;23;20061;-50
2023/10/16 17:41:42;;;;;;;3.53;0.90;;;3.00;99.90;;;;;;25342649;23;20013;-52
2023/10/16 17:51:44;;;;;;;5.00;1.00;;;3.00;99.90;;;;;;25316353;23;20010;-50
2023/10/16 18:01:46;;;;;;;3.45;0.90;;;2.90;99.90;;;;;;25342064;23;20323;-48
2023/10/16 18:11:47;;;;;;;2.50;0.90;;;2.90;99.90;;;;;;25341709;23;20524;-50
2023/10/16 18:21:49;;;;;;;2.60;1.00;;;2.80;99.90;;;;;;25341482;23;20006;-58
2023/10/16 18:31:52;;;;;;;2.58;0.90;;;2.70;99.90;;;;;;25340849;23;20382;-52
2023/10/16 18:41:55;;;;;;;1.75;0.73;;;2.70;99.90;;;;;;25340651;23;20163;-50
2023/10/16 18:51:57;;;;;;;1.70;0.77;;;2.90;99.90;;;;;;25340185;23;20006;-58
2023/10/16 19:01:59;;;;;;;2.58;1.17;;;2.80;99.90;;;;;;25379411;23;20017;-58
2023/10/16 19:12:03;;;;;;;2.90;0.90;;;2.90;99.90;;;;;;25338867;23;20014;-58
2023/10/16 19:22:05;;;;;;;3.03;1.08;;;2.80;99.90;;;;;;25338279;23;20084;-50
2023/10/16 19:32:07;;;;;;;2.55;0.90;;;3.00;99.90;;;;;;25338596;23;20017;-53
2023/10/16 19:42:10;;;;;;;2.10;0.73;;;3.20;99.90;;;;;;24966430;23;20010;-58
2023/10/16 19:52:16;;;;;;;4.60;0.88;;;3.30;99.90;;;;;;24966920;23;20523;-57
2023/10/16 20:02:18;;;;;;;3.42;1.05;;;3.30;99.90;;;;;;24988600;23;20550;-53
2023/10/16 20:12:20;;;;;;;3.15;0.90;;;3.30;99.90;;;;;;25022380;23;20330;-58
2023/10/16 20:22:22;;;;;;;1.58;0.80;;;3.50;99.90;;;;;;25311015;23;20010;-58
2023/10/16 20:32:26;;;;;;;2.92;0.90;;;3.50;99.90;;;;;;25311198;23;20006;-58
2023/10/16 20:42:27;;;;;;;1.83;0.95;;;3.50;99.90;;;;;;25336417;23;20002;-49
2023/10/16 20:52:29;;;;;;;1.65;0.75;;;3.60;99.90;;;;;;25339132;23;20294;-51
2023/10/16 21:02:31;;;;;;;1.98;0.80;;;3.60;99.90;;;;;;25344945;23;20005;-58
2023/10/16 21:12:33;;;;;;;3.05;1.05;;;3.60;99.90;;;;;;25318365;23;20016;-58
2023/10/16 21:22:36;;;;;;;2.20;0.77;;;3.70;99.90;;;;;;25344318;23;20152;-58
2023/10/16 21:32:38;;;;;;;1.48;0.80;;;3.90;99.90;;;;;;25343577;23;20092;-58
2023/10/16 21:42:40;;;;;;;1.55;0.80;;;3.80;99.90;;;;;;25343251;23;20445;-48
2023/10/16 21:52:42;;;;;;;2.33;0.85;;;3.80;99.90;;;;;;25342685;23;20072;-49
2023/10/16 22:02:46;;;;;;;2.50;0.90;;;3.80;99.90;;;;;;25341635;23;20002;-58
2023/10/16 22:12:50;;;;;;;3.53;1.10;;;4.00;99.90;;;;;;25341656;23;20057;-50
2023/10/16 22:22:52;;;;;;;1.75;0.82;;;4.00;99.90;;;;;;25341604;23;20009;-58
2023/10/16 22:32:54;;;;;;;1.65;1.00;;;3.70;99.90;;;;;;25342802;23;20082;-58
2023/10/16 22:42:56;;;;;;;2.53;0.93;;;3.60;99.90;;;;;;25314455;23;20545;-49
2023/10/16 22:52:58;;;;;;;4.50;1.20;;;3.60;99.90;;;;;;25340689;23;20119;-50
2023/10/16 23:03:00;;;;;;;2.38;1.17;;;3.70;99.90;;;;;;25340169;23;20156;-53
2023/10/16 23:13:11;;;;;;;2.17;0.88;;;3.70;99.90;;;;;;25339222;23;20089;-58
2023/10/16 23:23:13;;;;;;;3.03;0.88;;;3.40;99.90;;;;;;25380307;23;20018;-58
2023/10/16 23:33:15;;;;;;;2.33;1.20;;;3.20;99.90;;;;;;25339262;23;20030;-51
2023/10/16 23:43:28;;;;;;;3.65;1.27;;;3.10;99.90;;;;;;25338821;23;20076;-58
2023/10/16 23:53:30;;;;;;;5.38;1.50;;;2.90;99.90;;;;;;25371330;23;20389;-58
